Terminal Aerodrome Forecast
Issued by NWS

Home | Current Version | Previous Version | Text Only | Print | Product List | Glossary On
Versions: 1 2 3 4 5 6 7 8 9 10 11 12 13
772
FTUS45 KABQ 242339
TAFLVS
TAF
KLVS 242339Z 2500/2524 04011KT P6SM VCSH SCT070 BKN140
      TEMPO 2500/2502 VRB15G30KT 6SM -TSRA BKN060CB
     FM250300 02010KT P6SM FEW070 BKN150
     FM251100 VRB05KT P6SM SCT150
     FM252000 13010KT P6SM VCTS SCT070CB SCT120
     FM252300 13010G15KT P6SM VCSH SCT070 BKN120=

USA.gov is the U.S. government's official web portal to all federal, state and local government web resources and services.